createdAt,value
2023-04-23T00:00:20.000Z,1011.14
2023-04-23T00:01:24.000Z,1011.15
2023-04-23T00:02:22.000Z,1011.12
2023-04-23T00:03:22.000Z,1011.16
2023-04-23T00:04:22.000Z,1011.18
2023-04-23T00:05:21.000Z,1011.13
2023-04-23T00:06:21.000Z,1011.16
2023-04-23T00:07:21.000Z,1011.13
2023-04-23T00:08:21.000Z,1011.13
2023-04-23T00:09:22.000Z,1011.11
2023-04-23T00:10:20.000Z,1011.09
2023-04-23T00:11:20.000Z,1011.14
2023-04-23T00:12:20.000Z,1011.16
2023-04-23T00:13:20.000Z,1011.16
2023-04-23T00:14:20.000Z,1011.14
2023-04-23T00:15:21.000Z,1011.17
2023-04-23T00:16:20.000Z,1011.20
2023-04-23T00:17:20.000Z,1011.21
2023-04-23T00:18:20.000Z,1011.18
2023-04-23T00:19:20.000Z,1011.18
2023-04-23T00:20:20.000Z,1011.18
2023-04-23T00:21:19.000Z,1011.20
2023-04-23T00:22:20.000Z,1011.18
2023-04-23T00:23:20.000Z,1011.20
2023-04-23T00:24:19.000Z,1011.25
2023-04-23T00:25:20.000Z,1011.24
2023-04-23T00:26:19.000Z,1011.26
2023-04-23T00:27:20.000Z,1011.23
2023-04-23T00:28:19.000Z,1011.23
2023-04-23T00:29:19.000Z,1011.24
2023-04-23T00:30:19.000Z,1011.21
2023-04-23T00:31:21.000Z,1011.25
2023-04-23T00:32:21.000Z,1011.23
2023-04-23T00:33:19.000Z,1011.23
2023-04-23T00:34:19.000Z,1011.22
2023-04-23T00:35:20.000Z,1011.24
2023-04-23T00:36:19.000Z,1011.25
2023-04-23T00:37:19.000Z,1011.26
2023-04-23T00:38:20.000Z,1011.24
2023-04-23T00:39:20.000Z,1011.27
2023-04-23T00:40:20.000Z,1011.24
2023-04-23T00:41:20.000Z,1011.25
2023-04-23T00:42:20.000Z,1011.26
2023-04-23T00:43:19.000Z,1011.27
2023-04-23T00:44:19.000Z,1011.29
2023-04-23T00:45:20.000Z,1011.26
2023-04-23T00:46:20.000Z,1011.26
2023-04-23T00:47:20.000Z,1011.25
2023-04-23T00:48:19.000Z,1011.25
2023-04-23T00:49:22.000Z,1011.27
2023-04-23T00:50:20.000Z,1011.25
2023-04-23T00:51:21.000Z,1011.23
2023-04-23T00:52:20.000Z,1011.22
2023-04-23T00:53:19.000Z,1011.25
2023-04-23T00:54:21.000Z,1011.26
2023-04-23T00:55:22.000Z,1011.23
2023-04-23T00:56:20.000Z,1011.21
2023-04-23T00:57:21.000Z,1011.19
2023-04-23T00:58:20.000Z,1011.21
2023-04-23T00:59:20.000Z,1011.22
2023-04-23T01:00:20.000Z,1011.20
2023-04-23T01:01:20.000Z,1011.25
2023-04-23T01:02:20.000Z,1011.23
2023-04-23T01:03:21.000Z,1011.27
2023-04-23T01:04:21.000Z,1011.25
2023-04-23T01:05:21.000Z,1011.28
2023-04-23T01:06:20.000Z,1011.26
2023-04-23T01:07:20.000Z,1011.26
2023-04-23T01:08:23.000Z,1011.26
2023-04-23T01:09:20.000Z,1011.26
2023-04-23T01:10:20.000Z,1011.25
2023-04-23T01:11:19.000Z,1011.30
2023-04-23T01:12:19.000Z,1011.32
2023-04-23T01:13:21.000Z,1011.31
2023-04-23T01:14:19.000Z,1011.33
2023-04-23T01:15:19.000Z,1011.33
2023-04-23T01:16:19.000Z,1011.35
2023-04-23T01:17:20.000Z,1011.35
2023-04-23T01:18:21.000Z,1011.35
2023-04-23T01:19:19.000Z,1011.38
2023-04-23T01:20:20.000Z,1011.37
2023-04-23T01:21:19.000Z,1011.36
2023-04-23T01:22:19.000Z,1011.38
2023-04-23T01:23:20.000Z,1011.35
2023-04-23T01:24:19.000Z,1011.33
2023-04-23T01:25:19.000Z,1011.35
2023-04-23T01:26:21.000Z,1011.37
2023-04-23T01:27:20.000Z,1011.34
2023-04-23T01:28:20.000Z,1011.35
2023-04-23T01:29:20.000Z,1011.32
2023-04-23T01:30:21.000Z,1011.35
2023-04-23T01:31:20.000Z,1011.38
2023-04-23T01:32:20.000Z,1011.37
2023-04-23T01:33:19.000Z,1011.38
2023-04-23T01:34:21.000Z,1011.34
2023-04-23T01:35:20.000Z,1011.35
2023-04-23T01:36:22.000Z,1011.36
2023-04-23T01:37:20.000Z,1011.41
2023-04-23T01:38:21.000Z,1011.41
2023-04-23T01:39:19.000Z,1011.38
2023-04-23T01:40:20.000Z,1011.41
2023-04-23T01:41:19.000Z,1011.44
2023-04-23T01:42:20.000Z,1011.38
2023-04-23T01:43:21.000Z,1011.43
2023-04-23T01:44:19.000Z,1011.45
2023-04-23T01:45:19.000Z,1011.45
2023-04-23T01:46:20.000Z,1011.45
2023-04-23T01:47:20.000Z,1011.45
2023-04-23T01:48:20.000Z,1011.42
2023-04-23T01:49:19.000Z,1011.44
2023-04-23T01:50:22.000Z,1011.43
2023-04-23T01:51:19.000Z,1011.45
2023-04-23T01:52:19.000Z,1011.47
2023-04-23T01:53:19.000Z,1011.47
2023-04-23T01:54:20.000Z,1011.48
2023-04-23T01:55:20.000Z,1011.54
2023-04-23T01:56:24.000Z,1011.49
2023-04-23T01:57:23.000Z,1011.50
2023-04-23T01:58:20.000Z,1011.50
2023-04-23T01:59:22.000Z,1011.51
2023-04-23T02:00:19.000Z,1011.53
2023-04-23T02:01:19.000Z,1011.52
2023-04-23T02:02:20.000Z,1011.51
2023-04-23T02:03:19.000Z,1011.49
2023-04-23T02:04:19.000Z,1011.55
2023-04-23T02:05:20.000Z,1011.54
2023-04-23T02:06:19.000Z,1011.57
2023-04-23T02:07:19.000Z,1011.56
2023-04-23T02:08:20.000Z,1011.56
2023-04-23T02:09:20.000Z,1011.62
2023-04-23T02:10:19.000Z,1011.58
2023-04-23T02:11:19.000Z,1011.58
2023-04-23T02:12:19.000Z,1011.58
2023-04-23T02:13:19.000Z,1011.58
2023-04-23T02:14:19.000Z,1011.59
2023-04-23T02:15:20.000Z,1011.64
2023-04-23T02:16:19.000Z,1011.61
2023-04-23T02:17:20.000Z,1011.59
2023-04-23T02:18:19.000Z,1011.62
2023-04-23T02:19:19.000Z,1011.58
2023-04-23T02:20:21.000Z,1011.63
2023-04-23T02:21:21.000Z,1011.58
2023-04-23T02:22:21.000Z,1011.65
2023-04-23T02:23:19.000Z,1011.64
2023-04-23T02:24:19.000Z,1011.59
2023-04-23T02:25:20.000Z,1011.62
2023-04-23T02:26:21.000Z,1011.63
2023-04-23T02:27:19.000Z,1011.62
2023-04-23T02:28:18.000Z,1011.62
2023-04-23T02:29:19.000Z,1011.65
2023-04-23T02:30:19.000Z,1011.63
2023-04-23T02:31:19.000Z,1011.65
2023-04-23T02:32:18.000Z,1011.66
2023-04-23T02:33:19.000Z,1011.62
2023-04-23T02:34:18.000Z,1011.63
2023-04-23T02:35:19.000Z,1011.65
2023-04-23T02:36:18.000Z,1011.62
2023-04-23T02:37:19.000Z,1011.67
2023-04-23T02:38:19.000Z,1011.64
2023-04-23T02:39:18.000Z,1011.66
2023-04-23T02:40:19.000Z,1011.67
2023-04-23T02:41:19.000Z,1011.66
2023-04-23T02:42:18.000Z,1011.62
2023-04-23T02:43:18.000Z,1011.62
2023-04-23T02:44:18.000Z,1011.62
2023-04-23T02:45:18.000Z,1011.65
2023-04-23T02:46:18.000Z,1011.69
2023-04-23T02:47:18.000Z,1011.71
2023-04-23T02:48:20.000Z,1011.67
2023-04-23T02:49:18.000Z,1011.65
2023-04-23T02:50:19.000Z,1011.68
2023-04-23T02:51:18.000Z,1011.72
2023-04-23T02:52:18.000Z,1011.67
2023-04-23T02:53:18.000Z,1011.71
2023-04-23T02:54:18.000Z,1011.72
2023-04-23T02:55:18.000Z,1011.70
2023-04-23T02:56:19.000Z,1011.73
2023-04-23T02:57:20.000Z,1011.71
2023-04-23T02:58:19.000Z,1011.73
2023-04-23T02:59:19.000Z,1011.73
2023-04-23T03:00:19.000Z,1011.73
2023-04-23T03:01:19.000Z,1011.71
2023-04-23T03:02:19.000Z,1011.68
2023-04-23T03:03:20.000Z,1011.67
2023-04-23T03:04:19.000Z,1011.62
2023-04-23T03:05:20.000Z,1011.64
2023-04-23T03:06:19.000Z,1011.59
2023-04-23T03:07:19.000Z,1011.58
2023-04-23T03:08:19.000Z,1011.59
2023-04-23T03:09:19.000Z,1011.58
2023-04-23T03:10:19.000Z,1011.60
2023-04-23T03:11:20.000Z,1011.60
2023-04-23T03:12:19.000Z,1011.58
2023-04-23T03:13:19.000Z,1011.56
2023-04-23T03:14:19.000Z,1011.56
2023-04-23T03:15:20.000Z,1011.56
2023-04-23T03:16:19.000Z,1011.55
2023-04-23T03:17:19.000Z,1011.56
2023-04-23T03:18:19.000Z,1011.56
2023-04-23T03:19:19.000Z,1011.56
2023-04-23T03:20:19.000Z,1011.54
2023-04-23T03:21:19.000Z,1011.52
2023-04-23T03:22:19.000Z,1011.57
2023-04-23T03:23:19.000Z,1011.59
2023-04-23T03:24:19.000Z,1011.62
2023-04-23T03:25:21.000Z,1011.65
2023-04-23T03:26:19.000Z,1011.60
2023-04-23T03:27:19.000Z,1011.59
2023-04-23T03:28:19.000Z,1011.57
2023-04-23T03:29:18.000Z,1011.60
2023-04-23T03:30:19.000Z,1011.60
2023-04-23T03:31:19.000Z,1011.60
2023-04-23T03:32:19.000Z,1011.62
2023-04-23T03:33:19.000Z,1011.58
2023-04-23T03:34:19.000Z,1011.61
2023-04-23T03:35:19.000Z,1011.61
2023-04-23T03:36:18.000Z,1011.64
2023-04-23T03:37:18.000Z,1011.65
2023-04-23T03:38:19.000Z,1011.63
2023-04-23T03:39:19.000Z,1011.62
2023-04-23T03:40:19.000Z,1011.56
2023-04-23T03:41:19.000Z,1011.60
2023-04-23T03:42:19.000Z,1011.61
2023-04-23T03:43:19.000Z,1011.65
2023-04-23T03:44:19.000Z,1011.66
2023-04-23T03:45:19.000Z,1011.67
2023-04-23T03:46:18.000Z,1011.66
2023-04-23T03:47:19.000Z,1011.68
2023-04-23T03:48:19.000Z,1011.68
2023-04-23T03:49:18.000Z,1011.66
2023-04-23T03:50:19.000Z,1011.72
2023-04-23T03:51:19.000Z,1011.69
2023-04-23T03:52:19.000Z,1011.64
2023-04-23T03:53:19.000Z,1011.66
2023-04-23T03:54:19.000Z,1011.70
2023-04-23T03:55:19.000Z,1011.69
2023-04-23T03:56:19.000Z,1011.74
2023-04-23T03:57:19.000Z,1011.71
2023-04-23T03:58:19.000Z,1011.74
2023-04-23T03:59:19.000Z,1011.72
2023-04-23T04:00:19.000Z,1011.75
2023-04-23T04:01:19.000Z,1011.77
2023-04-23T04:02:19.000Z,1011.77
2023-04-23T04:03:19.000Z,1011.76
2023-04-23T04:04:19.000Z,1011.76
2023-04-23T04:05:21.000Z,1011.74
2023-04-23T04:06:19.000Z,1011.74
2023-04-23T04:07:20.000Z,1011.71
2023-04-23T04:08:19.000Z,1011.70
2023-04-23T04:09:19.000Z,1011.68
2023-04-23T04:10:19.000Z,1011.71
2023-04-23T04:11:19.000Z,1011.73
2023-04-23T04:12:19.000Z,1011.73
2023-04-23T04:13:19.000Z,1011.72
2023-04-23T04:14:21.000Z,1011.74
2023-04-23T04:15:19.000Z,1011.75
2023-04-23T04:16:19.000Z,1011.77
2023-04-23T04:17:19.000Z,1011.77
2023-04-23T04:18:19.000Z,1011.73
2023-04-23T04:19:19.000Z,1011.79
2023-04-23T04:20:19.000Z,1011.77
2023-04-23T04:21:19.000Z,1011.73
2023-04-23T04:22:19.000Z,1011.77
2023-04-23T04:23:19.000Z,1011.77
2023-04-23T04:24:21.000Z,1011.75
2023-04-23T04:25:21.000Z,1011.80
2023-04-23T04:26:19.000Z,1011.79
2023-04-23T04:27:19.000Z,1011.79
2023-04-23T04:28:19.000Z,1011.82
2023-04-23T04:29:19.000Z,1011.85
2023-04-23T04:30:20.000Z,1011.85
2023-04-23T04:31:20.000Z,1011.86
2023-04-23T04:32:21.000Z,1011.83
2023-04-23T04:33:19.000Z,1011.84
2023-04-23T04:34:19.000Z,1011.81
2023-04-23T04:35:19.000Z,1011.83
2023-04-23T04:36:19.000Z,1011.80
2023-04-23T04:37:22.000Z,1011.82
2023-04-23T04:38:20.000Z,1011.76
2023-04-23T04:39:19.000Z,1011.80
2023-04-23T04:40:19.000Z,1011.75
2023-04-23T04:41:20.000Z,1011.81
2023-04-23T04:42:19.000Z,1011.77
2023-04-23T04:43:19.000Z,1011.74
2023-04-23T04:44:20.000Z,1011.75
2023-04-23T04:45:19.000Z,1011.76
2023-04-23T04:46:19.000Z,1011.73
2023-04-23T04:47:19.000Z,1011.73
2023-04-23T04:48:19.000Z,1011.73
2023-04-23T04:49:20.000Z,1011.72
2023-04-23T04:50:19.000Z,1011.71
2023-04-23T04:51:19.000Z,1011.70
2023-04-23T04:52:19.000Z,1011.72
2023-04-23T04:53:19.000Z,1011.78
2023-04-23T04:54:20.000Z,1011.77
2023-04-23T04:55:19.000Z,1011.77
2023-04-23T04:56:20.000Z,1011.78
2023-04-23T04:57:21.000Z,1011.78
2023-04-23T04:58:19.000Z,1011.83
2023-04-23T04:59:18.000Z,1011.83
2023-04-23T05:00:25.000Z,1011.87
2023-04-23T05:01:20.000Z,1011.84
2023-04-23T05:02:20.000Z,1011.89
2023-04-23T05:03:19.000Z,1011.85
2023-04-23T05:04:18.000Z,1011.84
2023-04-23T05:05:20.000Z,1011.89
2023-04-23T05:06:18.000Z,1011.83
2023-04-23T05:07:18.000Z,1011.84
2023-04-23T05:08:20.000Z,1011.87
2023-04-23T05:09:19.000Z,1011.88
2023-04-23T05:10:19.000Z,1011.83
2023-04-23T05:11:19.000Z,1011.86
2023-04-23T05:12:18.000Z,1011.83
2023-04-23T05:13:18.000Z,1011.91
2023-04-23T05:14:18.000Z,1011.93
2023-04-23T05:15:18.000Z,1011.95
2023-04-23T05:16:19.000Z,1011.95
2023-04-23T05:17:18.000Z,1011.92
2023-04-23T05:18:18.000Z,1011.92
2023-04-23T05:19:18.000Z,1011.98
2023-04-23T05:20:19.000Z,1011.96
2023-04-23T05:21:18.000Z,1011.95
2023-04-23T05:22:19.000Z,1011.98
2023-04-23T05:23:18.000Z,1011.98
2023-04-23T05:24:18.000Z,1012.00
2023-04-23T05:25:18.000Z,1011.99
2023-04-23T05:26:19.000Z,1011.97
2023-04-23T05:27:19.000Z,1011.98
2023-04-23T05:28:18.000Z,1011.98
2023-04-23T05:29:18.000Z,1011.98
2023-04-23T05:30:19.000Z,1011.93
2023-04-23T05:31:19.000Z,1011.99
2023-04-23T05:32:19.000Z,1011.95
2023-04-23T05:33:18.000Z,1011.94
2023-04-23T05:34:19.000Z,1011.91
2023-04-23T05:35:19.000Z,1011.90
2023-04-23T05:36:19.000Z,1011.94
2023-04-23T05:37:19.000Z,1011.86
2023-04-23T05:38:19.000Z,1011.88
2023-04-23T05:39:19.000Z,1011.90
2023-04-23T05:40:19.000Z,1011.92
2023-04-23T05:41:19.000Z,1011.94
2023-04-23T05:42:18.000Z,1011.96
2023-04-23T05:43:19.000Z,1011.93
2023-04-23T05:44:19.000Z,1011.90
2023-04-23T05:45:19.000Z,1011.95
2023-04-23T05:46:18.000Z,1011.93
2023-04-23T05:47:19.000Z,1011.94
2023-04-23T05:48:19.000Z,1011.93
2023-04-23T05:49:18.000Z,1011.93
2023-04-23T05:50:19.000Z,1011.87
2023-04-23T05:51:19.000Z,1011.91
2023-04-23T05:52:18.000Z,1011.85
2023-04-23T05:53:19.000Z,1011.85
2023-04-23T05:54:19.000Z,1011.83
2023-04-23T05:55:19.000Z,1011.87
2023-04-23T05:56:19.000Z,1011.86
2023-04-23T05:57:18.000Z,1011.87
2023-04-23T05:58:19.000Z,1011.83
2023-04-23T05:59:19.000Z,1011.84
2023-04-23T06:00:20.000Z,1011.83
2023-04-23T06:01:19.000Z,1011.83
2023-04-23T06:02:19.000Z,1011.87
2023-04-23T06:03:19.000Z,1011.92
2023-04-23T06:04:19.000Z,1011.90
2023-04-23T06:05:19.000Z,1011.90
2023-04-23T06:06:19.000Z,1011.91
2023-04-23T06:07:19.000Z,1011.93
2023-04-23T06:08:19.000Z,1011.92
2023-04-23T06:09:19.000Z,1011.95
2023-04-23T06:10:19.000Z,1011.93
2023-04-23T06:11:21.000Z,1011.91
2023-04-23T06:12:19.000Z,1011.90
2023-04-23T06:13:20.000Z,1011.93
2023-04-23T06:14:19.000Z,1011.90
2023-04-23T06:15:20.000Z,1011.86
2023-04-23T06:16:19.000Z,1011.92
2023-04-23T06:17:19.000Z,1011.88
2023-04-23T06:18:19.000Z,1011.85
2023-04-23T06:19:19.000Z,1011.85
2023-04-23T06:20:19.000Z,1011.83
2023-04-23T06:21:19.000Z,1011.85
2023-04-23T06:22:19.000Z,1011.86
2023-04-23T06:23:19.000Z,1011.85
2023-04-23T06:24:19.000Z,1011.87
2023-04-23T06:25:19.000Z,1011.85
2023-04-23T06:26:19.000Z,1011.84
2023-04-23T06:27:19.000Z,1011.83
2023-04-23T06:28:19.000Z,1011.81
2023-04-23T06:29:19.000Z,1011.83
2023-04-23T06:30:19.000Z,1011.86
2023-04-23T06:31:19.000Z,1011.86
2023-04-23T06:32:19.000Z,1011.85
2023-04-23T06:33:18.000Z,1011.83
2023-04-23T06:34:18.000Z,1011.82
2023-04-23T06:35:19.000Z,1011.83
2023-04-23T06:36:19.000Z,1011.82
2023-04-23T06:37:18.000Z,1011.81
2023-04-23T06:38:21.000Z,1011.81
2023-04-23T06:39:19.000Z,1011.81
2023-04-23T06:40:19.000Z,1011.79
2023-04-23T06:41:19.000Z,1011.80
2023-04-23T06:42:19.000Z,1011.79
2023-04-23T06:43:18.000Z,1011.77
2023-04-23T06:44:19.000Z,1011.75
2023-04-23T06:45:18.000Z,1011.76
2023-04-23T06:46:18.000Z,1011.75
2023-04-23T06:47:18.000Z,1011.74
2023-04-23T06:48:20.000Z,1011.76
2023-04-23T06:49:19.000Z,1011.75
2023-04-23T06:50:18.000Z,1011.69
2023-04-23T06:51:18.000Z,1011.68
2023-04-23T06:52:18.000Z,1011.70
2023-04-23T06:53:20.000Z,1011.69
2023-04-23T06:54:18.000Z,1011.73
2023-04-23T06:55:20.000Z,1011.72
2023-04-23T06:56:19.000Z,1011.72
2023-04-23T06:57:20.000Z,1011.74
2023-04-23T06:58:20.000Z,1011.71
2023-04-23T06:59:18.000Z,1011.72
2023-04-23T07:00:20.000Z,1011.72
2023-04-23T07:01:18.000Z,1011.71
2023-04-23T07:02:18.000Z,1011.71
2023-04-23T07:03:18.000Z,1011.69
2023-04-23T07:04:18.000Z,1011.69
2023-04-23T07:05:18.000Z,1011.68
2023-04-23T07:06:18.000Z,1011.68
2023-04-23T07:07:18.000Z,1011.64
2023-04-23T07:08:21.000Z,1011.61
2023-04-23T07:09:18.000Z,1011.58
2023-04-23T07:10:18.000Z,1011.61
2023-04-23T07:11:18.000Z,1011.62
2023-04-23T07:12:18.000Z,1011.58
2023-04-23T07:13:18.000Z,1011.59
2023-04-23T07:14:18.000Z,1011.60
2023-04-23T07:15:18.000Z,1011.57
2023-04-23T07:16:20.000Z,1011.55
2023-04-23T07:17:18.000Z,1011.51
2023-04-23T07:18:18.000Z,1011.49
2023-04-23T07:19:18.000Z,1011.49
2023-04-23T07:20:18.000Z,1011.53
2023-04-23T07:21:18.000Z,1011.47
2023-04-23T07:22:18.000Z,1011.49
2023-04-23T07:23:18.000Z,1011.44
2023-04-23T07:24:18.000Z,1011.47
2023-04-23T07:25:20.000Z,1011.46
2023-04-23T07:26:19.000Z,1011.44
2023-04-23T07:27:18.000Z,1011.47
2023-04-23T07:28:18.000Z,1011.42
2023-04-23T07:29:18.000Z,1011.38
2023-04-23T07:30:21.000Z,1011.41
2023-04-23T07:31:19.000Z,1011.41
2023-04-23T07:32:21.000Z,1011.36
2023-04-23T07:33:18.000Z,1011.40
2023-04-23T07:34:18.000Z,1011.37
2023-04-23T07:35:19.000Z,1011.36
2023-04-23T07:36:19.000Z,1011.38
2023-04-23T07:37:20.000Z,1011.34
2023-04-23T07:38:18.000Z,1011.29
2023-04-23T07:39:19.000Z,1011.31
2023-04-23T07:40:20.000Z,1011.26
2023-04-23T07:41:19.000Z,1011.29
2023-04-23T07:42:18.000Z,1011.26
2023-04-23T07:43:19.000Z,1011.27
2023-04-23T07:44:18.000Z,1011.27
2023-04-23T07:45:19.000Z,1011.27
2023-04-23T07:46:19.000Z,1011.22
2023-04-23T07:47:19.000Z,1011.17
2023-04-23T07:48:19.000Z,1011.19
2023-04-23T07:49:18.000Z,1011.22
2023-04-23T07:50:19.000Z,1011.23
2023-04-23T07:51:21.000Z,1011.24
2023-04-23T07:52:18.000Z,1011.22
2023-04-23T07:53:19.000Z,1011.24
2023-04-23T07:54:19.000Z,1011.26
2023-04-23T07:55:20.000Z,1011.23
2023-04-23T07:56:20.000Z,1011.18
2023-04-23T07:57:18.000Z,1011.15
2023-04-23T07:58:19.000Z,1011.17
2023-04-23T07:59:19.000Z,1011.17
2023-04-23T08:00:19.000Z,1011.18
2023-04-23T08:01:20.000Z,1011.18
2023-04-23T08:02:24.000Z,1011.21
2023-04-23T08:03:19.000Z,1011.20
2023-04-23T08:04:19.000Z,1011.19
2023-04-23T08:05:18.000Z,1011.23
2023-04-23T08:06:18.000Z,1011.23
2023-04-23T08:07:19.000Z,1011.21
2023-04-23T08:08:18.000Z,1011.19
2023-04-23T08:09:18.000Z,1011.22
2023-04-23T08:10:19.000Z,1011.22
2023-04-23T08:11:18.000Z,1011.19
2023-04-23T08:12:19.000Z,1011.18
2023-04-23T08:13:19.000Z,1011.18
2023-04-23T08:14:18.000Z,1011.17
2023-04-23T08:15:18.000Z,1011.16
2023-04-23T08:16:19.000Z,1011.12
2023-04-23T08:17:19.000Z,1011.08
2023-04-23T08:18:18.000Z,1011.08
2023-04-23T08:19:18.000Z,1011.09
2023-04-23T08:20:19.000Z,1011.11
2023-04-23T08:21:19.000Z,1011.07
2023-04-23T08:22:19.000Z,1011.09
2023-04-23T08:23:18.000Z,1011.09
2023-04-23T08:24:18.000Z,1011.03
2023-04-23T08:25:21.000Z,1011.05
2023-04-23T08:26:19.000Z,1011.05
2023-04-23T08:27:19.000Z,1011.04
2023-04-23T08:28:18.000Z,1011.01
2023-04-23T08:29:19.000Z,1011.01
2023-04-23T08:30:18.000Z,1011.02
2023-04-23T08:31:19.000Z,1010.99
2023-04-23T08:32:18.000Z,1010.97
2023-04-23T08:33:19.000Z,1010.96
2023-04-23T08:34:19.000Z,1010.97
2023-04-23T08:35:19.000Z,1010.96
2023-04-23T08:36:19.000Z,1010.94
2023-04-23T08:37:19.000Z,1010.92
2023-04-23T08:38:19.000Z,1010.95
2023-04-23T08:39:19.000Z,1010.95
2023-04-23T08:40:19.000Z,1010.91
2023-04-23T08:41:22.000Z,1010.93
2023-04-23T08:42:40.000Z,1010.94
2023-04-23T08:43:19.000Z,1010.88
2023-04-23T08:44:23.000Z,1010.87
2023-04-23T08:45:20.000Z,1010.88
2023-04-23T08:46:21.000Z,1010.87
2023-04-23T08:47:23.000Z,1010.87
2023-04-23T08:48:19.000Z,1010.90
2023-04-23T08:49:19.000Z,1010.87
2023-04-23T08:50:19.000Z,1010.88
2023-04-23T08:51:23.000Z,1010.91
2023-04-23T08:52:22.000Z,1010.90
2023-04-23T08:53:22.000Z,1010.91
2023-04-23T08:54:31.000Z,1010.88
2023-04-23T08:55:20.000Z,1010.86
2023-04-23T08:56:19.000Z,1010.85
2023-04-23T08:57:19.000Z,1010.87
2023-04-23T08:58:19.000Z,1010.85
2023-04-23T08:59:21.000Z,1010.88
2023-04-23T09:00:19.000Z,1010.87
2023-04-23T09:01:19.000Z,1010.80
2023-04-23T09:02:19.000Z,1010.83
2023-04-23T09:03:21.000Z,1010.80
2023-04-23T09:04:19.000Z,1010.78
2023-04-23T09:05:19.000Z,1010.78
2023-04-23T09:06:20.000Z,1010.77
2023-04-23T09:07:28.000Z,1010.79
2023-04-23T09:08:20.000Z,1010.79
2023-04-23T09:09:23.000Z,1010.75
2023-04-23T09:10:19.000Z,1010.73
2023-04-23T09:11:22.000Z,1010.73
2023-04-23T09:12:19.000Z,1010.70
2023-04-23T09:13:19.000Z,1010.72
2023-04-23T09:14:25.000Z,1010.68
2023-04-23T09:15:19.000Z,1010.67
2023-04-23T09:16:19.000Z,1010.67
2023-04-23T09:17:21.000Z,1010.65
2023-04-23T09:18:19.000Z,1010.67
2023-04-23T09:19:19.000Z,1010.65
2023-04-23T09:20:19.000Z,1010.65
2023-04-23T09:21:19.000Z,1010.62
2023-04-23T09:22:29.000Z,1010.59
2023-04-23T09:23:21.000Z,1010.55
2023-04-23T09:24:22.000Z,1010.54
2023-04-23T09:25:22.000Z,1010.51
2023-04-23T09:26:21.000Z,1010.47
2023-04-23T09:27:23.000Z,1010.47
2023-04-23T09:28:19.000Z,1010.43
2023-04-23T09:29:22.000Z,1010.47
2023-04-23T09:30:19.000Z,1010.40
2023-04-23T09:31:21.000Z,1010.35
2023-04-23T09:32:30.000Z,1010.36
2023-04-23T09:33:19.000Z,1010.32
2023-04-23T09:34:21.000Z,1010.34
2023-04-23T09:35:19.000Z,1010.34
2023-04-23T09:36:20.000Z,1010.28
2023-04-23T09:37:23.000Z,1010.28
2023-04-23T09:38:19.000Z,1010.28
2023-04-23T09:39:22.000Z,1010.23
2023-04-23T09:40:21.000Z,1010.21
2023-04-23T09:41:23.000Z,1010.19
2023-04-23T09:42:21.000Z,1010.22
2023-04-23T09:43:18.000Z,1010.21
2023-04-23T09:44:20.000Z,1010.18
2023-04-23T09:45:21.000Z,1010.19
2023-04-23T09:46:29.000Z,1010.15
2023-04-23T09:47:18.000Z,1010.10
2023-04-23T09:48:19.000Z,1010.10
2023-04-23T09:49:19.000Z,1010.10
2023-04-23T09:50:33.000Z,1010.12
2023-04-23T09:51:18.000Z,1010.12
2023-04-23T09:52:19.000Z,1010.07
2023-04-23T09:53:19.000Z,1010.09
2023-04-23T09:54:21.000Z,1010.06
2023-04-23T09:55:26.000Z,1010.07
2023-04-23T09:56:19.000Z,1010.03
2023-04-23T09:57:22.000Z,1010.02
2023-04-23T09:58:23.000Z,1010.05
2023-04-23T09:59:23.000Z,1010.01
2023-04-23T10:00:19.000Z,1009.99
2023-04-23T10:01:26.000Z,1010.02
2023-04-23T10:02:25.000Z,1009.95
2023-04-23T10:03:25.000Z,1010.00
2023-04-23T10:04:23.000Z,1010.00
2023-04-23T10:05:20.000Z,1009.92
2023-04-23T10:06:25.000Z,1009.89
2023-04-23T10:07:18.000Z,1009.90
2023-04-23T10:08:19.000Z,1009.88
2023-04-23T10:09:24.000Z,1009.88
2023-04-23T10:10:18.000Z,1009.83
2023-04-23T10:11:19.000Z,1009.78
2023-04-23T10:12:19.000Z,1009.80
2023-04-23T10:13:19.000Z,1009.78
2023-04-23T10:14:23.000Z,1009.77
2023-04-23T10:15:18.000Z,1009.73
2023-04-23T10:16:20.000Z,1009.71
2023-04-23T10:17:18.000Z,1009.73
2023-04-23T10:18:18.000Z,1009.71
2023-04-23T10:19:20.000Z,1009.74
2023-04-23T10:20:20.000Z,1009.71
2023-04-23T10:21:27.000Z,1009.72
2023-04-23T10:22:19.000Z,1009.73
2023-04-23T10:23:20.000Z,1009.73
2023-04-23T10:24:22.000Z,1009.69
2023-04-23T10:25:20.000Z,1009.74
2023-04-23T10:26:21.000Z,1009.67
2023-04-23T10:27:20.000Z,1009.69
2023-04-23T10:28:26.000Z,1009.64
2023-04-23T10:29:25.000Z,1009.60
2023-04-23T10:30:19.000Z,1009.59
2023-04-23T10:31:19.000Z,1009.56
2023-04-23T10:32:19.000Z,1009.53
2023-04-23T10:33:19.000Z,1009.51
2023-04-23T10:34:18.000Z,1009.51
2023-04-23T10:35:18.000Z,1009.47
2023-04-23T10:36:21.000Z,1009.46
2023-04-23T10:37:19.000Z,1009.46
2023-04-23T10:38:27.000Z,1009.42
2023-04-23T10:39:20.000Z,1009.45
2023-04-23T10:40:27.000Z,1009.41
2023-04-23T10:41:23.000Z,1009.42
2023-04-23T10:42:19.000Z,1009.38
2023-04-23T10:43:19.000Z,1009.36
2023-04-23T10:44:20.000Z,1009.39
2023-04-23T10:45:19.000Z,1009.37
2023-04-23T10:46:27.000Z,1009.39
2023-04-23T10:47:20.000Z,1009.33
2023-04-23T10:48:19.000Z,1009.35
2023-04-23T10:49:21.000Z,1009.38
2023-04-23T10:50:24.000Z,1009.35
2023-04-23T10:51:18.000Z,1009.30
2023-04-23T10:52:20.000Z,1009.34
2023-04-23T10:53:21.000Z,1009.30
2023-04-23T10:54:18.000Z,1009.31
2023-04-23T10:55:25.000Z,1009.32
2023-04-23T10:56:18.000Z,1009.27
2023-04-23T10:57:19.000Z,1009.29
2023-04-23T10:58:20.000Z,1009.27
2023-04-23T10:59:21.000Z,1009.28
2023-04-23T11:00:20.000Z,1009.20
2023-04-23T11:01:24.000Z,1009.23
2023-04-23T11:02:21.000Z,1009.23
2023-04-23T11:03:28.000Z,1009.22
2023-04-23T11:04:24.000Z,1009.24
2023-04-23T11:05:20.000Z,1009.20
2023-04-23T11:06:38.000Z,1009.24
2023-04-23T11:07:19.000Z,1009.21
2023-04-23T11:08:19.000Z,1009.21
2023-04-23T11:09:28.000Z,1009.12
2023-04-23T11:10:18.000Z,1009.16
2023-04-23T11:11:36.000Z,1009.12
2023-04-23T11:12:34.000Z,1009.13
2023-04-23T11:13:29.000Z,1009.18
2023-04-23T11:14:18.000Z,1009.18
2023-04-23T11:15:19.000Z,1009.20
2023-04-23T11:16:20.000Z,1009.20
2023-04-23T11:17:38.000Z,1009.13
2023-04-23T11:18:22.000Z,1009.13
2023-04-23T11:19:18.000Z,1009.14
2023-04-23T11:20:20.000Z,1009.08
2023-04-23T11:21:18.000Z,1009.04
2023-04-23T11:22:20.000Z,1009.06
2023-04-23T11:23:29.000Z,1009.01
2023-04-23T11:24:21.000Z,1009.05
2023-04-23T11:25:21.000Z,1009.01
2023-04-23T11:26:20.000Z,1009.04
2023-04-23T11:27:19.000Z,1009.01
2023-04-23T11:28:20.000Z,1008.98
2023-04-23T11:29:23.000Z,1008.90
2023-04-23T11:30:23.000Z,1008.90
2023-04-23T11:31:19.000Z,1008.86
2023-04-23T11:32:19.000Z,1008.83
2023-04-23T11:33:19.000Z,1008.86
2023-04-23T11:34:19.000Z,1008.89
2023-04-23T11:35:21.000Z,1008.89
2023-04-23T11:36:20.000Z,1008.86
2023-04-23T11:37:18.000Z,1008.87
2023-04-23T11:38:19.000Z,1008.86
2023-04-23T11:39:21.000Z,1008.83
2023-04-23T11:40:19.000Z,1008.82
2023-04-23T11:41:22.000Z,1008.82
2023-04-23T11:42:18.000Z,1008.76
2023-04-23T11:43:19.000Z,1008.75
2023-04-23T11:44:19.000Z,1008.73
2023-04-23T11:45:24.000Z,1008.74
2023-04-23T11:46:18.000Z,1008.77
2023-04-23T11:47:18.000Z,1008.74
2023-04-23T11:48:19.000Z,1008.72
2023-04-23T11:49:20.000Z,1008.72
2023-04-23T11:50:26.000Z,1008.62
2023-04-23T11:51:24.000Z,1008.60
2023-04-23T11:52:18.000Z,1008.56
2023-04-23T11:53:19.000Z,1008.48
2023-04-23T11:54:23.000Z,1008.46
2023-04-23T11:55:19.000Z,1008.45
2023-04-23T11:56:18.000Z,1008.43
2023-04-23T11:57:19.000Z,1008.42
2023-04-23T11:58:18.000Z,1008.39
2023-04-23T11:59:18.000Z,1008.35
2023-04-23T12:00:21.000Z,1008.35
2023-04-23T12:01:18.000Z,1008.36
2023-04-23T12:02:22.000Z,1008.36
2023-04-23T12:03:23.000Z,1008.32
2023-04-23T12:04:23.000Z,1008.29
2023-04-23T12:05:42.000Z,1008.25